Knossos Palace — SYQO — position and weather

sailwx.info

Track history (hours):
 
Tides and Currents Weather Stations Pressure Air Temp Water Temp Dewpoint Dewpoint Depression Visibility Wind Speed Wind Dir Waves Ship Positions

Knossos Palace

Last reported at 2017-Nov-19 20:34 UTC. Time now 2017-Nov-20 19:28 UTC.
Position N 37°35' E 023°45'.

Length 214 m; beam 26.4 m; draft 7.3 m.

Type: Ship. MMSI: 237641000.

Date/timePositionNaut miles runAvg speedWind from/ knotsBaromVisibWave heightAir tempDewpointWater temp
2017-Nov-19 20:34N 37°35' E 023°45'119.6
2017-Nov-19 20:30N 37°36' E 023°44'1019.5
2017-Nov-19 20:00N 37°45' E 023°39'1019.3
2017-Nov-19 19:30N 37°55' E 023°37'2 3.9
2017-Nov-19 18:59N 37°57' E 023°38'0 0.0
2017-Nov-19 18:29N 37°57' E 023°38'0 0.0
2017-Nov-19 17:59N 37°57' E 023°38'0 0.0
2017-Nov-19 17:29N 37°57' E 023°38'0 0.0
2017-Nov-19 16:59N 37°57' E 023°38'0 0.0
2017-Nov-19 16:29N 37°57' E 023°38'0 0.0
2017-Nov-19 15:59N 37°57' E 023°38'0 0.0
2017-Nov-19 15:29N 37°57' E 023°38'0 0.0
2017-Nov-19 14:59N 37°57' E 023°38'0 0.0
2017-Nov-19 14:29N 37°57' E 023°38'0 0.0
2017-Nov-19 13:59N 37°57' E 023°38'0 0.0
2017-Nov-19 13:29N 37°57' E 023°38'0 0.0
2017-Nov-19 12:59N 37°57' E 023°38'0 0.0
2017-Nov-19 12:29N 37°57' E 023°38'0 0.0
2017-Nov-19 11:59N 37°57' E 023°38'0 0.0
2017-Nov-19 11:29N 37°57' E 023°38'0 0.0
2017-Nov-19 10:59N 37°57' E 023°38'0 0.0
2017-Nov-19 10:29N 37°57' E 023°38'0 0.0
2017-Nov-19 09:53N 37°57' E 023°38'0 0.0
2017-Nov-19 09:29N 37°57' E 023°38'0 0.0
2017-Nov-19 08:59N 37°57' E 023°38'0 0.0
2017-Nov-19 08:29N 37°57' E 023°38'0 0.0
2017-Nov-19 07:59N 37°57' E 023°38'0 0.0
2017-Nov-19 07:29N 37°57' E 023°38'0 0.0
2017-Nov-19 06:59N 37°57' E 023°38'0 0.0
2017-Nov-19 06:29N 37°57' E 023°38'0 0.0
2017-Nov-19 05:59N 37°57' E 023°38'0 0.0
2017-Nov-19 05:29N 37°57' E 023°38'0 0.0
2017-Nov-19 04:59N 37°57' E 023°38'0 0.0
2017-Nov-19 04:29N 37°57' E 023°38'4 8.9
2017-Nov-19 04:00N 37°52' E 023°39'1020.4
2017-Nov-19 03:30N 37°43' E 023°45'1020.4
2017-Nov-19 03:00N 37°34' E 023°49'2 0.1
2017-Nov-17 20:37N 37°33' E 023°46'219.6
2017-Nov-17 20:30N 37°36' E 023°45'919.4
2017-Nov-17 20:01N 37°44' E 023°40'1019.5
2017-Nov-17 19:31N 37°54' E 023°37'3 6.0
2017-Nov-17 19:00N 37°57' E 023°38'0 0.0
2017-Nov-17 18:30N 37°57' E 023°38'0 0.0
2017-Nov-17 18:00N 37°57' E 023°38'0 0.0
2017-Nov-17 17:30N 37°57' E 023°38'0 0.0
2017-Nov-17 17:00N 37°57' E 023°38'0 0.0
2017-Nov-17 16:30N 37°57' E 023°38'0 0.0
2017-Nov-17 16:00N 37°57' E 023°38'0 0.0
2017-Nov-17 15:30N 37°57' E 023°38'0 0.0
2017-Nov-17 15:00N 37°57' E 023°38'0 0.0
2017-Nov-17 14:30N 37°57' E 023°38'0 0.0
2017-Nov-17 14:00N 37°57' E 023°38'0 0.0
2017-Nov-17 13:30N 37°57' E 023°38'0 0.0
2017-Nov-17 13:00N 37°57' E 023°38'0 0.0
2017-Nov-17 12:30N 37°57' E 023°38'0 0.0
2017-Nov-17 12:00N 37°57' E 023°38'0 0.0
2017-Nov-17 11:27N 37°57' E 023°38'0 0.0
2017-Nov-17 11:00N 37°57' E 023°38'0 0.0
2017-Nov-17 10:30N 37°57' E 023°38'0 0.0
2017-Nov-17 10:01N 37°57' E 023°38'0 0.0
2017-Nov-17 09:30N 37°57' E 023°38'0 0.0
2017-Nov-17 09:00N 37°57' E 023°38'0 0.0
2017-Nov-17 08:30N 37°57' E 023°38'0 0.0
2017-Nov-17 08:00N 37°57' E 023°38'0 0.0
2017-Nov-17 07:30N 37°57' E 023°38'0 0.0
2017-Nov-17 07:00N 37°57' E 023°38'0 0.0
2017-Nov-17 06:30N 37°57' E 023°38'0 0.0
2017-Nov-17 06:01N 37°57' E 023°38'0 0.0
2017-Nov-17 05:30N 37°57' E 023°38'0 0.0
2017-Nov-17 05:01N 37°57' E 023°38'0 0.0
2017-Nov-17 04:30N 37°57' E 023°38'4 8.8
2017-Nov-17 04:00N 37°52' E 023°39'1020.4
2017-Nov-17 03:30N 37°43' E 023°45'1020.5
2017-Nov-17 03:00N 37°33' E 023°49'3 0.1
2017-Nov-15 20:38N 37°32' E 023°46'218.3
2017-Nov-15 20:30N 37°35' E 023°45'918.4
2017-Nov-15 20:00N 37°43' E 023°40'918.1
2017-Nov-15 19:30N 37°52' E 023°37'510.4
2017-Nov-15 19:00N 37°57' E 023°38'0 0.0
2017-Nov-15 18:31N 37°57' E 023°38'0 0.0
2017-Nov-15 18:00N 37°57' E 023°38'0 0.0
2017-Nov-15 17:30N 37°57' E 023°38'0 0.0
2017-Nov-15 17:00N 37°57' E 023°38'0 0.0
2017-Nov-15 16:30N 37°57' E 023°38'0 0.0
2017-Nov-15 16:00N 37°57' E 023°38'0 0.0
2017-Nov-15 15:30N 37°57' E 023°38'0 0.0
2017-Nov-15 15:00N 37°57' E 023°38'0 0.0
2017-Nov-15 14:30N 37°57' E 023°38'0 0.0
2017-Nov-15 14:00N 37°57' E 023°38'0 0.0
2017-Nov-15 13:30N 37°57' E 023°38'0 0.0
2017-Nov-15 13:00N 37°57' E 023°38'0 0.0
2017-Nov-15 12:30N 37°57' E 023°38'0 0.0
2017-Nov-15 12:00N 37°57' E 023°38'0 0.0
2017-Nov-15 11:30N 37°57' E 023°38'0 0.0
2017-Nov-15 10:57N 37°57' E 023°38'0 0.0
2017-Nov-15 10:30N 37°57' E 023°38'0 0.0
2017-Nov-15 10:00N 37°57' E 023°38'0 0.0
2017-Nov-15 09:30N 37°57' E 023°38'0 0.0
2017-Nov-15 09:00N 37°57' E 023°38'0 0.0
2017-Nov-15 08:30N 37°57' E 023°38'0 0.0
2017-Nov-15 08:00N 37°57' E 023°38'0 0.0
2017-Nov-15 07:30N 37°57' E 023°38'0 0.0
2017-Nov-15 07:00N 37°57' E 023°38'0 0.0
2017-Nov-15 06:30N 37°57' E 023°38'0 0.0
2017-Nov-15 06:00N 37°57' E 023°38'0 0.0
2017-Nov-15 05:27N 37°57' E 023°38'0 0.0
2017-Nov-15 05:00N 37°57' E 023°38'0 0.0
2017-Nov-15 04:30N 37°57' E 023°38'3 6.7
2017-Nov-15 04:00N 37°53' E 023°38'1020.2
2017-Nov-15 03:30N 37°44' E 023°44'1020.2
2017-Nov-15 03:00N 37°35' E 023°49'84 3.2
2017-Nov-14 01:00N 36°18' E 024°30'0 0.0 250 / 251009.010.8 19.015.917.0
2017-Nov-12 01:00N 36°18' E 024°30'8218.9 150 / 141017.710.8 19.517.219.0
2017-Nov-11 20:40N 37°32' E 023°47'318.0
2017-Nov-11 20:30N 37°35' E 023°46'918.1
2017-Nov-11 20:00N 37°43' E 023°41'918.5
2017-Nov-11 19:31N 37°52' E 023°37'510.0
2017-Nov-11 19:00N 37°57' E 023°38'0 0.0
2017-Nov-11 18:30N 37°57' E 023°38'0 0.0
2017-Nov-11 18:00N 37°57' E 023°38'0 0.0
2017-Nov-11 17:30N 37°57' E 023°38'0 0.0
2017-Nov-11 17:00N 37°57' E 023°38'0 0.0
2017-Nov-11 16:30N 37°57' E 023°38'0 0.0
2017-Nov-11 16:00N 37°57' E 023°38'0 0.0
2017-Nov-11 15:30N 37°57' E 023°38'0 0.0
2017-Nov-11 15:00N 37°57' E 023°38'0 0.0
2017-Nov-11 14:30N 37°57' E 023°38'0 0.0
2017-Nov-11 14:00N 37°57' E 023°38'0 0.0
2017-Nov-11 13:30N 37°57' E 023°38'0 0.0
2017-Nov-11 13:00N 37°57' E 023°38'0 0.0
2017-Nov-11 12:30N 37°57' E 023°38'0 0.0
2017-Nov-11 12:00N 37°57' E 023°38'0 0.0
2017-Nov-11 11:30N 37°57' E 023°38'0 0.0
2017-Nov-11 11:00N 37°57' E 023°38'0 0.0
2017-Nov-11 10:30N 37°57' E 023°38'0 0.0
2017-Nov-11 10:00N 37°57' E 023°38'0 0.0
2017-Nov-11 09:30N 37°57' E 023°38'0 0.0
2017-Nov-11 09:00N 37°57' E 023°38'0 0.0
2017-Nov-11 08:30N 37°57' E 023°38'0 0.0
2017-Nov-11 08:00N 37°57' E 023°38'0 0.0
2017-Nov-11 07:30N 37°57' E 023°38'0 0.0
2017-Nov-11 07:00N 37°57' E 023°38'0 0.0
2017-Nov-11 06:30N 37°57' E 023°38'0 0.0
2017-Nov-11 06:00N 37°57' E 023°38'0 0.0
2017-Nov-11 05:30N 37°57' E 023°38'0 0.0
2017-Nov-11 05:00N 37°57' E 023°38'0 0.0
2017-Nov-11 04:30N 37°57' E 023°38'3 5.9
2017-Nov-11 04:00N 37°54' E 023°38'918.5
2017-Nov-11 03:30N 37°45' E 023°43'1019.3
2017-Nov-11 03:00N 37°36' E 023°48'85 3.3
2017-Nov-10 01:00N 36°18' E 024°30'   1020.510.8 18.516.217.0
Track history (hours):
 
Tides and Currents Weather Stations Pressure Air Temp Water Temp Dewpoint Dewpoint Depression Visibility Wind Speed Wind Dir Waves Ship Positions

Knossos Palace

Last reported at 2017-Nov-19 20:34 UTC. Time now 2017-Nov-20 19:28 UTC.
Position N 37°35' E 023°45'.

Length 214 m; beam 26.4 m; draft 7.3 m.

Type: Ship. MMSI: 237641000.

Date/timePositionNaut miles runAvg speedWind from/ knotsBaromVisibWave heightAir tempDewpointWater temp
2017-Nov-19 20:34N 37°35' E 023°45'119.6
2017-Nov-19 20:30N 37°36' E 023°44'1019.5
2017-Nov-19 20:00N 37°45' E 023°39'1019.3
2017-Nov-19 19:30N 37°55' E 023°37'2 3.9
2017-Nov-19 18:59N 37°57' E 023°38'0 0.0
2017-Nov-19 18:29N 37°57' E 023°38'0 0.0
2017-Nov-19 17:59N 37°57' E 023°38'0 0.0
2017-Nov-19 17:29N 37°57' E 023°38'0 0.0
2017-Nov-19 16:59N 37°57' E 023°38'0 0.0
2017-Nov-19 16:29N 37°57' E 023°38'0 0.0
2017-Nov-19 15:59N 37°57' E 023°38'0 0.0
2017-Nov-19 15:29N 37°57' E 023°38'0 0.0
2017-Nov-19 14:59N 37°57' E 023°38'0 0.0
2017-Nov-19 14:29N 37°57' E 023°38'0 0.0
2017-Nov-19 13:59N 37°57' E 023°38'0 0.0
2017-Nov-19 13:29N 37°57' E 023°38'0 0.0
2017-Nov-19 12:59N 37°57' E 023°38'0 0.0
2017-Nov-19 12:29N 37°57' E 023°38'0 0.0
2017-Nov-19 11:59N 37°57' E 023°38'0 0.0
2017-Nov-19 11:29N 37°57' E 023°38'0 0.0
2017-Nov-19 10:59N 37°57' E 023°38'0 0.0
2017-Nov-19 10:29N 37°57' E 023°38'0 0.0
2017-Nov-19 09:53N 37°57' E 023°38'0 0.0
2017-Nov-19 09:29N 37°57' E 023°38'0 0.0
2017-Nov-19 08:59N 37°57' E 023°38'0 0.0
2017-Nov-19 08:29N 37°57' E 023°38'0 0.0
2017-Nov-19 07:59N 37°57' E 023°38'0 0.0
2017-Nov-19 07:29N 37°57' E 023°38'0 0.0
2017-Nov-19 06:59N 37°57' E 023°38'0 0.0
2017-Nov-19 06:29N 37°57' E 023°38'0 0.0
2017-Nov-19 05:59N 37°57' E 023°38'0 0.0
2017-Nov-19 05:29N 37°57' E 023°38'0 0.0
2017-Nov-19 04:59N 37°57' E 023°38'0 0.0
2017-Nov-19 04:29N 37°57' E 023°38'4 8.9
2017-Nov-19 04:00N 37°52' E 023°39'1020.4
2017-Nov-19 03:30N 37°43' E 023°45'1020.4
2017-Nov-19 03:00N 37°34' E 023°49'2 0.1
2017-Nov-17 20:37N 37°33' E 023°46'219.6
2017-Nov-17 20:30N 37°36' E 023°45'919.4
2017-Nov-17 20:01N 37°44' E 023°40'1019.5
2017-Nov-17 19:31N 37°54' E 023°37'3 6.0
2017-Nov-17 19:00N 37°57' E 023°38'0 0.0
2017-Nov-17 18:30N 37°57' E 023°38'0 0.0
2017-Nov-17 18:00N 37°57' E 023°38'0 0.0
2017-Nov-17 17:30N 37°57' E 023°38'0 0.0
2017-Nov-17 17:00N 37°57' E 023°38'0 0.0
2017-Nov-17 16:30N 37°57' E 023°38'0 0.0
2017-Nov-17 16:00N 37°57' E 023°38'0 0.0
2017-Nov-17 15:30N 37°57' E 023°38'0 0.0
2017-Nov-17 15:00N 37°57' E 023°38'0 0.0
2017-Nov-17 14:30N 37°57' E 023°38'0 0.0
2017-Nov-17 14:00N 37°57' E 023°38'0 0.0
2017-Nov-17 13:30N 37°57' E 023°38'0 0.0
2017-Nov-17 13:00N 37°57' E 023°38'0 0.0
2017-Nov-17 12:30N 37°57' E 023°38'0 0.0
2017-Nov-17 12:00N 37°57' E 023°38'0 0.0
2017-Nov-17 11:27N 37°57' E 023°38'0 0.0
2017-Nov-17 11:00N 37°57' E 023°38'0 0.0
2017-Nov-17 10:30N 37°57' E 023°38'0 0.0
2017-Nov-17 10:01N 37°57' E 023°38'0 0.0
2017-Nov-17 09:30N 37°57' E 023°38'0 0.0
2017-Nov-17 09:00N 37°57' E 023°38'0 0.0
2017-Nov-17 08:30N 37°57' E 023°38'0 0.0
2017-Nov-17 08:00N 37°57' E 023°38'0 0.0
2017-Nov-17 07:30N 37°57' E 023°38'0 0.0
2017-Nov-17 07:00N 37°57' E 023°38'0 0.0
2017-Nov-17 06:30N 37°57' E 023°38'0 0.0
2017-Nov-17 06:01N 37°57' E 023°38'0 0.0
2017-Nov-17 05:30N 37°57' E 023°38'0 0.0
2017-Nov-17 05:01N 37°57' E 023°38'0 0.0
2017-Nov-17 04:30N 37°57' E 023°38'4 8.8
2017-Nov-17 04:00N 37°52' E 023°39'1020.4
2017-Nov-17 03:30N 37°43' E 023°45'1020.5
2017-Nov-17 03:00N 37°33' E 023°49'3 0.1
2017-Nov-15 20:38N 37°32' E 023°46'218.3
2017-Nov-15 20:30N 37°35' E 023°45'918.4
2017-Nov-15 20:00N 37°43' E 023°40'918.1
2017-Nov-15 19:30N 37°52' E 023°37'510.4
2017-Nov-15 19:00N 37°57' E 023°38'0 0.0
2017-Nov-15 18:31N 37°57' E 023°38'0 0.0
2017-Nov-15 18:00N 37°57' E 023°38'0 0.0
2017-Nov-15 17:30N 37°57' E 023°38'0 0.0
2017-Nov-15 17:00N 37°57' E 023°38'0 0.0
2017-Nov-15 16:30N 37°57' E 023°38'0 0.0
2017-Nov-15 16:00N 37°57' E 023°38'0 0.0
2017-Nov-15 15:30N 37°57' E 023°38'0 0.0
2017-Nov-15 15:00N 37°57' E 023°38'0 0.0
2017-Nov-15 14:30N 37°57' E 023°38'0 0.0
2017-Nov-15 14:00N 37°57' E 023°38'0 0.0
2017-Nov-15 13:30N 37°57' E 023°38'0 0.0
2017-Nov-15 13:00N 37°57' E 023°38'0 0.0
2017-Nov-15 12:30N 37°57' E 023°38'0 0.0
2017-Nov-15 12:00N 37°57' E 023°38'0 0.0
2017-Nov-15 11:30N 37°57' E 023°38'0 0.0
2017-Nov-15 10:57N 37°57' E 023°38'0 0.0
2017-Nov-15 10:30N 37°57' E 023°38'0 0.0
2017-Nov-15 10:00N 37°57' E 023°38'0 0.0
2017-Nov-15 09:30N 37°57' E 023°38'0 0.0
2017-Nov-15 09:00N 37°57' E 023°38'0 0.0
2017-Nov-15 08:30N 37°57' E 023°38'0 0.0
2017-Nov-15 08:00N 37°57' E 023°38'0 0.0
2017-Nov-15 07:30N 37°57' E 023°38'0 0.0
2017-Nov-15 07:00N 37°57' E 023°38'0 0.0
2017-Nov-15 06:30N 37°57' E 023°38'0 0.0
2017-Nov-15 06:00N 37°57' E 023°38'0 0.0
2017-Nov-15 05:27N 37°57' E 023°38'0 0.0
2017-Nov-15 05:00N 37°57' E 023°38'0 0.0
2017-Nov-15 04:30N 37°57' E 023°38'3 6.7
2017-Nov-15 04:00N 37°53' E 023°38'1020.2
2017-Nov-15 03:30N 37°44' E 023°44'1020.2
2017-Nov-15 03:00N 37°35' E 023°49'84 3.2
2017-Nov-14 01:00N 36°18' E 024°30'0 0.0 250 / 251009.010.8 19.015.917.0
2017-Nov-12 01:00N 36°18' E 024°30'8218.9 150 / 141017.710.8 19.517.219.0
2017-Nov-11 20:40N 37°32' E 023°47'318.0
2017-Nov-11 20:30N 37°35' E 023°46'918.1
2017-Nov-11 20:00N 37°43' E 023°41'918.5
2017-Nov-11 19:31N 37°52' E 023°37'510.0
2017-Nov-11 19:00N 37°57' E 023°38'0 0.0
2017-Nov-11 18:30N 37°57' E 023°38'0 0.0
2017-Nov-11 18:00N 37°57' E 023°38'0 0.0
2017-Nov-11 17:30N 37°57' E 023°38'0 0.0
2017-Nov-11 17:00N 37°57' E 023°38'0 0.0
2017-Nov-11 16:30N 37°57' E 023°38'0 0.0
2017-Nov-11 16:00N 37°57' E 023°38'0 0.0
2017-Nov-11 15:30N 37°57' E 023°38'0 0.0
2017-Nov-11 15:00N 37°57' E 023°38'0 0.0
2017-Nov-11 14:30N 37°57' E 023°38'0 0.0
2017-Nov-11 14:00N 37°57' E 023°38'0 0.0
2017-Nov-11 13:30N 37°57' E 023°38'0 0.0
2017-Nov-11 13:00N 37°57' E 023°38'0 0.0
2017-Nov-11 12:30N 37°57' E 023°38'0 0.0
2017-Nov-11 12:00N 37°57' E 023°38'0 0.0
2017-Nov-11 11:30N 37°57' E 023°38'0 0.0
2017-Nov-11 11:00N 37°57' E 023°38'0 0.0
2017-Nov-11 10:30N 37°57' E 023°38'0 0.0
2017-Nov-11 10:00N 37°57' E 023°38'0 0.0
2017-Nov-11 09:30N 37°57' E 023°38'0 0.0
2017-Nov-11 09:00N 37°57' E 023°38'0 0.0
2017-Nov-11 08:30N 37°57' E 023°38'0 0.0
2017-Nov-11 08:00N 37°57' E 023°38'0 0.0
2017-Nov-11 07:30N 37°57' E 023°38'0 0.0
2017-Nov-11 07:00N 37°57' E 023°38'0 0.0
2017-Nov-11 06:30N 37°57' E 023°38'0 0.0
2017-Nov-11 06:00N 37°57' E 023°38'0 0.0
2017-Nov-11 05:30N 37°57' E 023°38'0 0.0
2017-Nov-11 05:00N 37°57' E 023°38'0 0.0
2017-Nov-11 04:30N 37°57' E 023°38'3 5.9
2017-Nov-11 04:00N 37°54' E 023°38'918.5
2017-Nov-11 03:30N 37°45' E 023°43'1019.3
2017-Nov-11 03:00N 37°36' E 023°48'85 3.3
2017-Nov-10 01:00N 36°18' E 024°30'   1020.510.8 18.516.217.0

Dump ship's entire track history